Time;durP1;ratioP1;P1;durP2;ratioP2;P2;SDS_P1;SDS_P2;PMS_P1;PMS_P2;Temp;Humidity;BMP_temperature;BMP_pressure;BME280_temperature;BME280_humidity;BME280_pressure;Samples;Min_cycle;Max_cycle;Signal;HPM_P1;HPM_P2
2023/05/05 00:00:55;;;;;;;4.75;2.20;;;;;;;15.56;33.25;100344.25;20976026;28;20280;-77
2023/05/05 00:10:57;;;;;;;4.80;2.40;;;;;;;15.25;33.66;100341.59;20980588;28;20191;-78
2023/05/05 00:20:59;;;;;;;2.13;1.70;;;;;;;14.95;33.52;100333.59;20992758;28;20245;-77
2023/05/05 00:31:01;;;;;;;2.65;2.28;;;;;;;15.05;33.11;100323.66;20989956;28;20195;-79
2023/05/05 00:41:03;;;;;;;2.05;1.92;;;;;;;15.57;32.43;100317.44;20993657;28;20616;-77
2023/05/05 00:51:08;;;;;;;2.25;2.05;;;;;;;15.23;34.08;100322.03;21003313;28;20195;-76
2023/05/05 01:01:10;;;;;;;9.55;2.40;;;;;;;15.42;32.66;100319.16;21009886;28;20280;-77
2023/05/05 01:11:22;;;;;;;3.20;1.92;;;;;;;15.55;34.72;100308.44;20990845;28;20188;-77
2023/05/05 01:21:30;;;;;;;2.65;1.65;;;;;;;15.30;33.80;100312.81;21014285;28;20234;-77
2023/05/05 01:31:50;;;;;;;3.03;1.80;;;;;;;15.44;34.33;100311.09;20999509;28;20203;-77
2023/05/05 01:41:56;;;;;;;2.17;1.95;;;;;;;15.31;34.81;100317.31;20984328;28;20268;-77
2023/05/05 01:51:59;;;;;;;4.18;2.17;;;;;;;15.23;34.28;100313.50;20980421;28;20260;-77
2023/05/05 02:02:02;;;;;;;2.90;2.17;;;;;;;14.82;35.64;100324.38;20966174;28;20292;-76
2023/05/05 02:12:05;;;;;;;2.33;1.88;;;;;;;15.08;35.03;100322.91;20996336;28;20191;-78
2023/05/05 02:22:08;;;;;;;3.70;2.38;;;;;;;15.12;35.21;100327.47;21017175;28;20267;-76
2023/05/05 02:32:13;;;;;;;4.57;2.30;;;;;;;15.57;35.20;100340.19;21012235;28;20481;-77
2023/05/05 02:42:18;;;;;;;2.85;2.50;;;;;;;15.19;36.75;100341.00;21003577;28;20215;-78
2023/05/05 02:52:22;;;;;;;3.35;2.90;;;;;;;14.86;39.32;100350.88;20955114;28;20192;-77
2023/05/05 03:02:40;;;;;;;6.18;3.65;;;;;;;14.62;40.38;100355.97;20991280;28;20223;-78
2023/05/05 03:12:58;;;;;;;4.07;3.70;;;;;;;14.75;41.40;100371.72;20966682;28;20227;-78
2023/05/05 03:23:19;;;;;;;8.70;4.65;;;;;;;14.56;42.40;100385.84;20997697;28;20574;-77
2023/05/05 03:33:29;;;;;;;6.57;4.95;;;;;;;14.76;43.40;100384.72;20976916;28;20199;-79
2023/05/05 03:43:34;;;;;;;11.25;5.22;;;;;;;14.66;43.89;100388.94;20976473;28;20218;-77
2023/05/05 03:53:36;;;;;;;6.45;5.43;;;;;;;14.58;45.07;100386.31;20972404;28;20225;-77
2023/05/05 04:03:41;;;;;;;9.63;7.40;;;;;;;14.89;45.53;100394.75;20997667;28;20219;-77
2023/05/05 04:13:43;;;;;;;10.07;7.93;;;;;;;14.44;46.94;100401.78;20977297;28;20228;-78
2023/05/05 04:23:46;;;;;;;10.85;8.48;;;;;;;14.58;46.93;100400.53;20910996;28;20523;-77
2023/05/05 04:33:48;;;;;;;13.38;9.50;;;;;;;14.46;47.85;100412.78;20918254;28;21580;-77
2023/05/05 04:43:52;;;;;;;13.25;8.05;;;;;;;14.88;46.26;100413.03;20898750;28;20501;-78
2023/05/05 04:53:54;;;;;;;8.77;7.80;;;;;;;14.68;46.71;100412.13;20887135;28;20179;-78
2023/05/05 05:03:56;;;;;;;14.35;9.95;;;;;;;14.99;46.74;100428.31;20905332;28;20227;-77
2023/05/05 05:13:58;;;;;;;11.93;9.48;;;;;;;14.63;47.49;100442.88;20888600;28;20301;-77
2023/05/05 05:24:01;;;;;;;12.23;10.88;;;;;;;14.18;49.02;100458.28;20885206;28;20228;-78
2023/05/05 05:34:03;;;;;;;14.38;11.60;;;;;;;14.57;48.53;100461.38;20888313;28;20270;-78
2023/05/05 05:44:05;;;;;;;15.27;11.57;;;;;;;14.41;49.00;100482.03;20869029;28;20505;-78
2023/05/05 05:54:07;;;;;;;16.27;12.85;;;;;;;14.84;49.24;100475.47;20903237;28;20457;-77
2023/05/05 06:04:10;;;;;;;17.83;12.50;;;;;;;14.50;50.70;100481.84;20872599;28;20223;-79
2023/05/05 06:14:13;;;;;;;15.98;12.43;;;;;;;15.15;49.46;100490.81;20886680;28;20288;-78
2023/05/05 06:24:16;;;;;;;16.58;12.82;;;;;;;15.25;48.82;100492.31;20974489;28;20260;-77
2023/05/05 06:34:18;;;;;;;14.73;11.95;;;;;;;14.79;49.82;100503.34;20955977;28;20488;-77
2023/05/05 06:44:20;;;;;;;14.10;10.93;;;;;;;14.77;49.25;100505.72;21011774;28;20222;-77
2023/05/05 06:54:22;;;;;;;14.95;11.00;;;;;;;15.21;47.37;100498.72;20989013;28;20187;-77
2023/05/05 07:04:25;;;;;;;13.10;9.20;;;;;;;14.83;47.60;100504.25;20988071;28;20253;-77
2023/05/05 07:14:27;;;;;;;11.32;8.90;;;;;;;15.07;46.19;100515.44;20986071;28;20608;-77
2023/05/05 07:24:29;;;;;;;14.73;7.82;;;;;;;15.50;46.51;100519.31;21002911;28;20218;-77
2023/05/05 07:34:33;;;;;;;9.70;8.80;;;;;;;16.06;44.28;100522.59;20985781;28;20233;-78
2023/05/05 07:44:35;;;;;;;11.68;8.90;;;;;;;15.83;44.96;100533.06;20976177;28;20332;-77
2023/05/05 07:54:37;;;;;;;10.00;8.48;;;;;;;15.87;45.76;100549.03;21010782;28;20195;-78
2023/05/05 08:04:39;;;;;;;11.60;8.90;;;;;;;16.20;45.01;100550.53;21000677;28;20219;-78
2023/05/05 08:14:42;;;;;;;9.90;7.05;;;;;;;16.47;44.20;100560.03;20976123;28;20289;-78
2023/05/05 08:24:45;;;;;;;9.07;5.95;;;;;;;16.66;43.46;100562.88;20951357;28;20264;-80
2023/05/05 08:34:47;;;;;;;6.70;5.43;;;;;;;16.81;42.05;100558.28;20979734;28;20469;-77
2023/05/05 08:44:49;;;;;;;8.40;5.93;;;;;;;16.89;40.77;100560.03;21000899;28;20218;-79
2023/05/05 08:55:01;;;;;;;9.30;6.78;;;;;;;16.35;44.16;100563.03;20974669;28;20234;-79
